• Join FlightAware (Why Join?)
  • Login
  • US Flag 
06:26PM EDT


 

Airport Tracker/Info


-or-


 

Live Flight TrackerFlight Track Log ✈ DAL2251 ✈ 30-Apr-2012 ✈ KATL - KCLT

Flight Track Log - Related Links

Times and Time Zones

All times are in EDT time to prevent confusion due to time zone crossing. See the DAL2251 flight status page for this flight to view local times or setup timezone preferences in your user account.

Time Position Orientation Groundspeed Altitude Reporting Facility
EDT Latitude Longitude Course Direction KTS MPH feet Rate Location/Type
09:32AM 33.6350 -84.3881 90° East 446 513 2,100  Level Atlanta Center
09:33AM 33.6353 -84.2858 91° East 318 366 4,200 2,460 Climbing Atlanta Center
09:34AM 33.6333 -84.1667 90° East 295 339 8,100 2,880 Climbing Atlanta TRACON
09:35AM 33.6336 -84.0911 85° East 303 349 10,100 1,920 Climbing Atlanta Center
09:36AM 33.6419 -83.9839 87° East 312 359 11,500 1,680 Climbing Atlanta Center
09:37AM 33.6481 -83.8542 86° East 362 417 13,500 2,280 Climbing Atlanta Center
09:38AM 33.6561 -83.7194 77° East 399 459 16,100 2,280 Climbing Atlanta Center
09:39AM 33.6828 -83.5844 64° Northeast 409 471 18,100 1,980 Climbing Atlanta Center
09:40AM 33.7364 -83.4542 64° Northeast 423 487 20,100 1,740 Climbing Atlanta Center
09:41AM 33.7922 -83.3189 64° Northeast 440 506 21,600 1,500 Climbing Atlanta Center
09:42AM 33.8414 -83.1958 64° Northeast 452 520 23,100 1,680 Climbing Atlanta Center
09:43AM 33.8989 -83.0528 65° Northeast 463 533 25,000 1,740 Climbing Atlanta Center
09:44AM 33.9519 -82.9144 64° Northeast 463 533 26,700 960 Climbing Atlanta Center
09:45AM 34.0089 -82.7708 55° Northeast 463 533 27,000 120 Climbing Atlanta Center
09:46AM 34.0828 -82.6442 54° Northeast 458 527 27,000  Level Atlanta Center
09:47AM 34.1667 -82.5022 55° Northeast 458 527 27,000 -1,020 Level Atlanta Center
09:49AM 34.3053 -82.2658 54° Northeast 438 504 24,000 -1,500 Descending Atlanta Center
09:50AM 34.3744 -82.1486 55° Northeast 431 496 22,500 -1,800 Descending Atlanta Center
09:51AM 34.4417 -82.0339 54° Northeast 426 490 20,400 -2,100 Descending Atlanta Center
09:52AM 34.5064 -81.9239 53° Northeast 420 483 18,400 -1,980 Descending Atlanta Center
09:53AM 34.5694 -81.8214 53° Northeast 398 458 16,500 -1,980 Descending Atlanta Center
09:54AM 34.6242 -81.7342 56° Northeast 381 438 14,800 -1,920 Descending Atlanta Center
09:55AM 34.6886 -81.6161 52° Northeast 365 420 12,700 -1,380 Descending Atlanta Center
09:56AM 34.7372 -81.5414 48° Northeast 338 389 12,000 -420 Descending Atlanta Center
09:57AM 34.7981 -81.4586 45° Northeast 313 360 12,000 -600 Level Atlanta Center
09:58AM 34.8611 -81.3808 48° Northeast 313 360 10,800 -1,320 Descending Atlanta Center
09:59AM 34.9178 -81.3031 45° Northeast 308 354 9,400 -900 Descending Atlanta Center
10:00AM 34.9789 -81.2275 46° Northeast 299 344 9,000 -240 Descending Atlanta Center
10:01AM 35.0294 -81.1625 49° Northeast 294 338 9,000  Level Atlanta Center
10:02AM 35.0650 -81.1131 43° Northeast 293 337 9,000  Level FAA TRACON SMA TRACON (SMA)
10:02AM 35.1064 -81.0667 North 293 337 9,000  Level FAA TRACON SMA TRACON (SMA)
10:03AM 35.1503 -81.0639 357° North 251 289 9,000 -540 Level FAA TRACON SMA TRACON (SMA)
10:04AM 35.1958 -81.0667 356° North 238 274 8,300 -1,560 Descending FAA TRACON SMA TRACON (SMA)
10:04AM 35.2406 -81.0703 356° North 230 265 6,900 -2,100 Descending FAA TRACON SMA TRACON (SMA)
10:05AM 35.2758 -81.0733 356° North 231 266 5,600 -2,100 Descending FAA TRACON SMA TRACON (SMA)
10:06AM 35.3214 -81.0769 355° North 234 269 4,100 -1,200 Descending FAA TRACON SMA TRACON (SMA)
10:06AM 35.3669 -81.0814 356° North 234 269 4,000 -120 Descending FAA TRACON SMA TRACON (SMA)
10:07AM 35.4017 -81.0847 North 207 238 4,000  Level FAA TRACON SMA TRACON (SMA)
10:08AM 35.4375 -81.0781 76° East 198 228 4,000  Level FAA TRACON SMA TRACON (SMA)
10:08AM 35.4464 -81.0336 98° East 193 222 4,000  Level FAA TRACON SMA TRACON (SMA)
10:09AM 35.4419 -80.9967 163° South 183 211 4,000 -300 Level FAA TRACON SMA TRACON (SMA)
10:10AM 35.4072 -80.9833 182° South 178 205 3,600 -600 Descending FAA TRACON SMA TRACON (SMA)
10:10AM 35.3819 -80.9844 172° South 176 203 3,300 -480 Descending Atlanta Center
10:11AM 35.3444 -80.9778 176° South 172 198 3,000 -600 Descending FAA TRACON SMA TRACON (SMA)
10:12AM 35.3114 -80.9747 176° South 170 196 2,500 -900 Descending FAA TRACON SMA TRACON (SMA)
10:12AM 35.2803 -80.9719 176° South 166 191 1,800 -840 Descending FAA TRACON SMA TRACON (SMA)
10:13AM 35.2561 -80.9700 176° South 149 171 1,400 -720 Descending FAA TRACON SMA TRACON (SMA)
10:14AM 35.2317 -80.9681 176° South 143 165 900 -780 Descending FAA TRACON SMA TRACON (SMA)